sensor_id;sensor_type;location;lat;lon;timestamp;pressure;altitude;pressure_sealevel;temperature;humidity
16525;BME280;8375;33.594;-117.718;2023-02-26T00:02:08;100065.59;;;8.37;97.57
16525;BME280;8375;33.594;-117.718;2023-02-26T00:04:37;100076.59;;;8.15;95.78
16525;BME280;8375;33.594;-117.718;2023-02-26T00:07:06;100074.63;;;7.92;93.08
16525;BME280;8375;33.594;-117.718;2023-02-26T00:09:35;100080.00;;;7.89;92.40
16525;BME280;8375;33.594;-117.718;2023-02-26T00:12:04;100076.81;;;7.99;92.01
16525;BME280;8375;33.594;-117.718;2023-02-26T00:14:33;100077.44;;;8.02;90.95
16525;BME280;8375;33.594;-117.718;2023-02-26T00:17:25;100091.28;;;8.14;90.63
16525;BME280;8375;33.594;-117.718;2023-02-26T00:19:56;100099.13;;;8.13;90.32
16525;BME280;8375;33.594;-117.718;2023-02-26T00:22:25;100094.44;;;8.44;94.52
16525;BME280;8375;33.594;-117.718;2023-02-26T00:24:55;100100.22;;;8.60;92.27
16525;BME280;8375;33.594;-117.718;2023-02-26T00:27:24;100097.22;;;8.66;90.37
16525;BME280;8375;33.594;-117.718;2023-02-26T00:29:53;100095.53;;;8.78;90.50
16525;BME280;8375;33.594;-117.718;2023-02-26T00:32:24;100096.56;;;8.76;88.48
16525;BME280;8375;33.594;-117.718;2023-02-26T00:34:53;100090.13;;;8.82;89.46
16525;BME280;8375;33.594;-117.718;2023-02-26T00:37:32;100087.13;;;8.75;89.66
16525;BME280;8375;33.594;-117.718;2023-02-26T00:40:14;100090.13;;;8.82;91.98
16525;BME280;8375;33.594;-117.718;2023-02-26T00:42:47;100102.03;;;8.84;91.49
16525;BME280;8375;33.594;-117.718;2023-02-26T00:45:17;100098.41;;;8.87;93.31
16525;BME280;8375;33.594;-117.718;2023-02-26T00:47:54;100104.09;;;8.79;91.72
16525;BME280;8375;33.594;-117.718;2023-02-26T00:50:25;100107.25;;;8.71;91.06
16525;BME280;8375;33.594;-117.718;2023-02-26T00:53:02;100103.44;;;8.64;91.25
16525;BME280;8375;33.594;-117.718;2023-02-26T00:55:36;100109.66;;;8.61;92.42
16525;BME280;8375;33.594;-117.718;2023-02-26T00:58:05;100107.56;;;8.66;90.85
16525;BME280;8375;33.594;-117.718;2023-02-26T01:00:34;100101.16;;;8.59;84.65
16525;BME280;8375;33.594;-117.718;2023-02-26T01:03:05;100098.06;;;8.54;83.94
16525;BME280;8375;33.594;-117.718;2023-02-26T01:05:34;100101.91;;;8.48;83.15
16525;BME280;8375;33.594;-117.718;2023-02-26T01:08:07;100103.53;;;8.62;87.99
16525;BME280;8375;33.594;-117.718;2023-02-26T01:10:38;100106.41;;;8.71;87.19
16525;BME280;8375;33.594;-117.718;2023-02-26T01:13:08;100106.75;;;8.90;89.55
16525;BME280;8375;33.594;-117.718;2023-02-26T01:15:38;100108.69;;;9.00;88.17
16525;BME280;8375;33.594;-117.718;2023-02-26T01:18:17;100106.59;;;9.05;88.42
16525;BME280;8375;33.594;-117.718;2023-02-26T01:20:48;100108.47;;;9.03;86.85
16525;BME280;8375;33.594;-117.718;2023-02-26T01:23:23;100106.16;;;9.11;88.58
16525;BME280;8375;33.594;-117.718;2023-02-26T01:25:55;100102.53;;;9.14;87.06
16525;BME280;8375;33.594;-117.718;2023-02-26T01:28:26;100114.75;;;9.12;83.34
16525;BME280;8375;33.594;-117.718;2023-02-26T01:30:59;100108.38;;;9.04;84.77
16525;BME280;8375;33.594;-117.718;2023-02-26T01:33:37;100108.91;;;8.97;83.02
16525;BME280;8375;33.594;-117.718;2023-02-26T01:36:08;100107.00;;;9.12;86.72
16525;BME280;8375;33.594;-117.718;2023-02-26T01:38:42;100102.63;;;9.12;84.26
16525;BME280;8375;33.594;-117.718;2023-02-26T01:41:25;100097.88;;;9.06;84.31
16525;BME280;8375;33.594;-117.718;2023-02-26T01:44:03;100095.34;;;9.17;88.33
16525;BME280;8375;33.594;-117.718;2023-02-26T01:46:40;100109.31;;;9.03;82.71
16525;BME280;8375;33.594;-117.718;2023-02-26T01:49:16;100117.75;;;8.94;88.31
16525;BME280;8375;33.594;-117.718;2023-02-26T01:51:49;100130.72;;;8.81;90.23
16525;BME280;8375;33.594;-117.718;2023-02-26T01:54:20;100131.44;;;8.83;92.72
16525;BME280;8375;33.594;-117.718;2023-02-26T01:56:51;100127.25;;;8.69;88.23
16525;BME280;8375;33.594;-117.718;2023-02-26T01:59:20;100129.91;;;8.68;90.66
16525;BME280;8375;33.594;-117.718;2023-02-26T02:01:51;100130.78;;;8.55;86.12
16525;BME280;8375;33.594;-117.718;2023-02-26T02:04:22;100130.44;;;8.47;85.55
16525;BME280;8375;33.594;-117.718;2023-02-26T02:06:53;100125.19;;;8.35;84.98
16525;BME280;8375;33.594;-117.718;2023-02-26T02:09:21;100130.69;;;8.31;87.87
16525;BME280;8375;33.594;-117.718;2023-02-26T02:12:11;100131.41;;;8.20;87.79
16525;BME280;8375;33.594;-117.718;2023-02-26T02:14:56;100135.88;;;8.31;89.16
16525;BME280;8375;33.594;-117.718;2023-02-26T02:17:36;100140.06;;;8.45;90.01
16525;BME280;8375;33.594;-117.718;2023-02-26T02:20:28;100147.75;;;8.46;89.78
16525;BME280;8375;33.594;-117.718;2023-02-26T02:23:10;100144.00;;;8.37;89.83
16525;BME280;8375;33.594;-117.718;2023-02-26T02:26:10;100137.41;;;8.33;88.61
16525;BME280;8375;33.594;-117.718;2023-02-26T02:28:53;100142.56;;;8.33;90.17
16525;BME280;8375;33.594;-117.718;2023-02-26T02:31:31;100144.25;;;8.21;88.01
16525;BME280;8375;33.594;-117.718;2023-02-26T02:34:10;100148.69;;;8.32;93.60
16525;BME280;8375;33.594;-117.718;2023-02-26T02:36:44;100144.00;;;8.37;91.08
16525;BME280;8375;33.594;-117.718;2023-02-26T02:39:20;100146.09;;;8.45;91.04
16525;BME280;8375;33.594;-117.718;2023-02-26T02:41:53;100154.47;;;8.49;90.74
16525;BME280;8375;33.594;-117.718;2023-02-26T02:44:25;100154.34;;;8.63;94.66
16525;BME280;8375;33.594;-117.718;2023-02-26T02:46:58;100152.78;;;8.74;93.61
16525;BME280;8375;33.594;-117.718;2023-02-26T02:49:29;100156.59;;;8.81;93.16
16525;BME280;8375;33.594;-117.718;2023-02-26T02:52:01;100161.78;;;8.81;89.95
16525;BME280;8375;33.594;-117.718;2023-02-26T02:54:35;100170.25;;;8.83;91.51
16525;BME280;8375;33.594;-117.718;2023-02-26T02:57:10;100165.00;;;8.85;91.84
16525;BME280;8375;33.594;-117.718;2023-02-26T02:59:44;100163.41;;;8.95;91.97
16525;BME280;8375;33.594;-117.718;2023-02-26T03:02:18;100172.97;;;9.06;93.91
16525;BME280;8375;33.594;-117.718;2023-02-26T03:04:49;100168.09;;;9.14;89.86
16525;BME280;8375;33.594;-117.718;2023-02-26T03:07:18;100174.03;;;9.03;87.62
16525;BME280;8375;33.594;-117.718;2023-02-26T03:09:47;100186.56;;;9.09;91.63
16525;BME280;8375;33.594;-117.718;2023-02-26T03:12:16;100195.94;;;8.86;87.07
16525;BME280;8375;33.594;-117.718;2023-02-26T03:14:45;100200.72;;;8.66;92.85
16525;BME280;8375;33.594;-117.718;2023-02-26T03:17:22;100203.63;;;8.49;94.67
16525;BME280;8375;33.594;-117.718;2023-02-26T03:20:08;100205.56;;;8.32;97.85
16525;BME280;8375;33.594;-117.718;2023-02-26T03:22:42;100204.03;;;8.17;97.19
16525;BME280;8375;33.594;-117.718;2023-02-26T03:25:17;100211.56;;;8.07;99.01
16525;BME280;8375;33.594;-117.718;2023-02-26T03:27:50;100211.00;;;7.89;98.28
16525;BME280;8375;33.594;-117.718;2023-02-26T03:30:24;100206.59;;;7.63;99.89
16525;BME280;8375;33.594;-117.718;2023-02-26T03:32:59;100204.38;;;7.44;100.00
16525;BME280;8375;33.594;-117.718;2023-02-26T03:35:35;100198.91;;;7.22;100.00
16525;BME280;8375;33.594;-117.718;2023-02-26T03:38:08;100193.59;;;7.10;100.00
16525;BME280;8375;33.594;-117.718;2023-02-26T03:40:42;100190.56;;;6.89;100.00
16525;BME280;8375;33.594;-117.718;2023-02-26T03:43:18;100199.53;;;6.69;100.00
16525;BME280;8375;33.594;-117.718;2023-02-26T03:45:49;100191.13;;;6.80;100.00
16525;BME280;8375;33.594;-117.718;2023-02-26T03:48:23;100199.16;;;6.89;100.00
16525;BME280;8375;33.594;-117.718;2023-02-26T03:50:57;100201.56;;;6.93;100.00
16525;BME280;8375;33.594;-117.718;2023-02-26T03:53:31;100201.63;;;6.91;100.00
16525;BME280;8375;33.594;-117.718;2023-02-26T03:56:06;100204.69;;;6.98;100.00
16525;BME280;8375;33.594;-117.718;2023-02-26T03:58:37;100200.72;;;6.92;100.00
16525;BME280;8375;33.594;-117.718;2023-02-26T04:01:10;100193.63;;;6.81;100.00
16525;BME280;8375;33.594;-117.718;2023-02-26T04:03:43;100196.66;;;6.73;100.00
16525;BME280;8375;33.594;-117.718;2023-02-26T04:06:13;100194.38;;;6.69;100.00
16525;BME280;8375;33.594;-117.718;2023-02-26T04:08:42;100198.34;;;6.74;100.00
16525;BME280;8375;33.594;-117.718;2023-02-26T04:11:13;100202.13;;;6.83;100.00
16525;BME280;8375;33.594;-117.718;2023-02-26T04:13:43;100208.94;;;6.84;100.00
16525;BME280;8375;33.594;-117.718;2023-02-26T04:16:13;100200.63;;;6.94;100.00
16525;BME280;8375;33.594;-117.718;2023-02-26T04:18:43;100202.28;;;6.95;100.00
16525;BME280;8375;33.594;-117.718;2023-02-26T04:21:13;100194.91;;;6.88;100.00
16525;BME280;8375;33.594;-117.718;2023-02-26T04:23:42;100192.69;;;6.97;100.00
16525;BME280;8375;33.594;-117.718;2023-02-26T04:26:10;100198.41;;;7.02;100.00
16525;BME280;8375;33.594;-117.718;2023-02-26T04:28:39;100204.28;;;7.04;100.00
16525;BME280;8375;33.594;-117.718;2023-02-26T04:31:08;100213.97;;;7.00;100.00
16525;BME280;8375;33.594;-117.718;2023-02-26T04:33:37;100223.66;;;6.97;100.00
16525;BME280;8375;33.594;-117.718;2023-02-26T04:36:08;100225.50;;;7.09;100.00
16525;BME280;8375;33.594;-117.718;2023-02-26T04:38:37;100215.09;;;6.96;100.00
16525;BME280;8375;33.594;-117.718;2023-02-26T04:41:06;100221.84;;;6.84;100.00
16525;BME280;8375;33.594;-117.718;2023-02-26T04:43:35;100209.91;;;6.96;100.00
16525;BME280;8375;33.594;-117.718;2023-02-26T04:46:04;100212.28;;;7.14;100.00
16525;BME280;8375;33.594;-117.718;2023-02-26T04:48:33;100200.41;;;7.11;100.00
16525;BME280;8375;33.594;-117.718;2023-02-26T04:51:02;100197.28;;;7.06;100.00
16525;BME280;8375;33.594;-117.718;2023-02-26T04:53:33;100196.25;;;7.09;100.00
16525;BME280;8375;33.594;-117.718;2023-02-26T04:56:02;100194.75;;;7.19;100.00
16525;BME280;8375;33.594;-117.718;2023-02-26T04:58:30;100209.78;;;7.27;100.00
16525;BME280;8375;33.594;-117.718;2023-02-26T05:00:59;100232.50;;;7.07;100.00
16525;BME280;8375;33.594;-117.718;2023-02-26T05:03:28;100220.72;;;7.03;100.00
16525;BME280;8375;33.594;-117.718;2023-02-26T05:05:57;100217.78;;;6.80;99.80
16525;BME280;8375;33.594;-117.718;2023-02-26T05:08:26;100224.69;;;6.65;100.00
16525;BME280;8375;33.594;-117.718;2023-02-26T05:10:56;100214.28;;;6.52;100.00
16525;BME280;8375;33.594;-117.718;2023-02-26T05:13:25;100227.53;;;6.46;100.00
16525;BME280;8375;33.594;-117.718;2023-02-26T05:15:53;100229.47;;;6.42;100.00
16525;BME280;8375;33.594;-117.718;2023-02-26T05:18:22;100230.50;;;6.40;100.00
16525;BME280;8375;33.594;-117.718;2023-02-26T05:20:52;100236.56;;;6.39;100.00
16525;BME280;8375;33.594;-117.718;2023-02-26T05:23:22;100240.16;;;6.51;100.00
16525;BME280;8375;33.594;-117.718;2023-02-26T05:25:50;100258.88;;;6.54;100.00
16525;BME280;8375;33.594;-117.718;2023-02-26T05:28:23;100259.13;;;6.50;100.00
16525;BME280;8375;33.594;-117.718;2023-02-26T05:30:54;100258.28;;;6.35;98.16
16525;BME280;8375;33.594;-117.718;2023-02-26T05:33:23;100268.16;;;6.42;100.00
16525;BME280;8375;33.594;-117.718;2023-02-26T05:35:52;100268.06;;;6.44;100.00
16525;BME280;8375;33.594;-117.718;2023-02-26T05:38:20;100263.66;;;6.46;100.00
16525;BME280;8375;33.594;-117.718;2023-02-26T05:40:49;100268.72;;;6.48;100.00
16525;BME280;8375;33.594;-117.718;2023-02-26T05:43:18;100259.22;;;6.48;100.00
16525;BME280;8375;33.594;-117.718;2023-02-26T05:45:48;100262.44;;;6.52;100.00
16525;BME280;8375;33.594;-117.718;2023-02-26T05:48:17;100255.91;;;6.46;100.00
16525;BME280;8375;33.594;-117.718;2023-02-26T05:50:47;100262.44;;;6.37;100.00
16525;BME280;8375;33.594;-117.718;2023-02-26T05:53:16;100272.66;;;6.39;100.00
16525;BME280;8375;33.594;-117.718;2023-02-26T05:55:46;100266.03;;;6.35;100.00
16525;BME280;8375;33.594;-117.718;2023-02-26T05:58:14;100270.91;;;6.39;100.00
16525;BME280;8375;33.594;-117.718;2023-02-26T06:00:43;100273.59;;;6.38;100.00
16525;BME280;8375;33.594;-117.718;2023-02-26T06:03:13;100276.25;;;6.36;100.00
16525;BME280;8375;33.594;-117.718;2023-02-26T06:05:42;100276.41;;;6.33;100.00
16525;BME280;8375;33.594;-117.718;2023-02-26T06:08:11;100285.06;;;6.32;100.00
16525;BME280;8375;33.594;-117.718;2023-02-26T06:10:41;100287.00;;;6.28;100.00
16525;BME280;8375;33.594;-117.718;2023-02-26T06:13:10;100286.44;;;6.23;100.00
16525;BME280;8375;33.594;-117.718;2023-02-26T06:15:39;100290.13;;;6.19;100.00
16525;BME280;8375;33.594;-117.718;2023-02-26T06:18:07;100286.13;;;6.13;100.00
16525;BME280;8375;33.594;-117.718;2023-02-26T06:20:38;100276.66;;;6.14;100.00
16525;BME280;8375;33.594;-117.718;2023-02-26T06:23:06;100280.31;;;6.10;100.00
16525;BME280;8375;33.594;-117.718;2023-02-26T06:25:36;100285.13;;;6.16;100.00
16525;BME280;8375;33.594;-117.718;2023-02-26T06:28:04;100280.06;;;6.14;100.00
16525;BME280;8375;33.594;-117.718;2023-02-26T06:30:33;100286.13;;;6.13;100.00
16525;BME280;8375;33.594;-117.718;2023-02-26T06:33:02;100286.38;;;6.39;100.00
16525;BME280;8375;33.594;-117.718;2023-02-26T06:35:30;100281.41;;;6.51;100.00
16525;BME280;8375;33.594;-117.718;2023-02-26T06:38:01;100279.13;;;6.46;100.00
16525;BME280;8375;33.594;-117.718;2023-02-26T06:40:29;100281.31;;;6.38;100.00
16525;BME280;8375;33.594;-117.718;2023-02-26T06:42:59;100276.34;;;6.35;100.00
16525;BME280;8375;33.594;-117.718;2023-02-26T06:45:27;100274.56;;;6.35;100.00
16525;BME280;8375;33.594;-117.718;2023-02-26T06:47:56;100277.72;;;6.40;100.00
16525;BME280;8375;33.594;-117.718;2023-02-26T06:50:26;100280.75;;;6.33;100.00
16525;BME280;8375;33.594;-117.718;2023-02-26T06:52:54;100284.50;;;6.27;100.00
16525;BME280;8375;33.594;-117.718;2023-02-26T06:55:24;100280.78;;;6.47;100.00
16525;BME280;8375;33.594;-117.718;2023-02-26T06:57:53;100278.09;;;6.49;100.00
16525;BME280;8375;33.594;-117.718;2023-02-26T07:00:23;100274.63;;;6.64;100.00
16525;BME280;8375;33.594;-117.718;2023-02-26T07:02:52;100273.50;;;6.54;100.00
16525;BME280;8375;33.594;-117.718;2023-02-26T07:05:21;100273.16;;;6.74;100.00
16525;BME280;8375;33.594;-117.718;2023-02-26T07:07:50;100266.50;;;6.70;100.00
16525;BME280;8375;33.594;-117.718;2023-02-26T07:10:19;100267.16;;;6.59;100.00
16525;BME280;8375;33.594;-117.718;2023-02-26T07:12:52;100265.16;;;6.65;100.00
16525;BME280;8375;33.594;-117.718;2023-02-26T07:15:20;100264.22;;;6.51;100.00
16525;BME280;8375;33.594;-117.718;2023-02-26T07:17:49;100266.03;;;6.35;100.00
16525;BME280;8375;33.594;-117.718;2023-02-26T07:20:18;100260.59;;;6.39;100.00
16525;BME280;8375;33.594;-117.718;2023-02-26T07:22:48;100263.09;;;6.41;100.00
16525;BME280;8375;33.594;-117.718;2023-02-26T07:25:17;100263.28;;;6.38;100.00
16525;BME280;8375;33.594;-117.718;2023-02-26T07:27:46;100267.13;;;6.30;100.00
16525;BME280;8375;33.594;-117.718;2023-02-26T07:30:17;100262.78;;;6.31;100.00
16525;BME280;8375;33.594;-117.718;2023-02-26T07:32:46;100267.47;;;6.24;100.00
16525;BME280;8375;33.594;-117.718;2023-02-26T07:35:15;100275.03;;;6.27;100.00
16525;BME280;8375;33.594;-117.718;2023-02-26T07:37:43;100272.09;;;6.34;100.00
16525;BME280;8375;33.594;-117.718;2023-02-26T07:40:13;100274.22;;;6.41;100.00
16525;BME280;8375;33.594;-117.718;2023-02-26T07:42:42;100272.63;;;6.24;100.00
16525;BME280;8375;33.594;-117.718;2023-02-26T07:45:10;100272.66;;;6.39;100.00
16525;BME280;8375;33.594;-117.718;2023-02-26T07:47:41;100272.50;;;6.56;100.00
16525;BME280;8375;33.594;-117.718;2023-02-26T07:50:11;100281.59;;;6.48;100.00
16525;BME280;8375;33.594;-117.718;2023-02-26T07:52:40;100288.22;;;6.37;100.00
16525;BME280;8375;33.594;-117.718;2023-02-26T07:55:09;100307.13;;;6.52;100.00
16525;BME280;8375;33.594;-117.718;2023-02-26T07:57:38;100302.63;;;6.56;100.00
16525;BME280;8375;33.594;-117.718;2023-02-26T08:00:07;100304.38;;;6.55;100.00
16525;BME280;8375;33.594;-117.718;2023-02-26T08:02:36;100314.31;;;6.47;100.00
16525;BME280;8375;33.594;-117.718;2023-02-26T08:05:07;100321.19;;;6.46;100.00
16525;BME280;8375;33.594;-117.718;2023-02-26T08:07:36;100319.78;;;6.71;100.00
16525;BME280;8375;33.594;-117.718;2023-02-26T08:10:05;100317.56;;;6.65;100.00
16525;BME280;8375;33.594;-117.718;2023-02-26T08:12:34;100316.72;;;6.50;100.00
16525;BME280;8375;33.594;-117.718;2023-02-26T08:15:02;100308.38;;;6.30;100.00
16525;BME280;8375;33.594;-117.718;2023-02-26T08:17:31;100301.75;;;6.10;100.00
16525;BME280;8375;33.594;-117.718;2023-02-26T08:20:00;100305.59;;;6.03;100.00
16525;BME280;8375;33.594;-117.718;2023-02-26T08:22:32;100302.78;;;6.08;100.00
16525;BME280;8375;33.594;-117.718;2023-02-26T08:25:00;100312.91;;;6.11;100.00
16525;BME280;8375;33.594;-117.718;2023-02-26T08:27:29;100325.69;;;6.28;100.00
16525;BME280;8375;33.594;-117.718;2023-02-26T08:29:58;100316.72;;;6.20;100.00
16525;BME280;8375;33.594;-117.718;2023-02-26T08:32:26;100324.44;;;6.20;100.00
16525;BME280;8375;33.594;-117.718;2023-02-26T08:34:55;100331.00;;;6.25;100.00
16525;BME280;8375;33.594;-117.718;2023-02-26T08:37:24;100331.19;;;6.22;100.00
16525;BME280;8375;33.594;-117.718;2023-02-26T08:39:54;100343.44;;;6.33;100.00
16525;BME280;8375;33.594;-117.718;2023-02-26T08:42:23;100347.53;;;6.37;100.00
16525;BME280;8375;33.594;-117.718;2023-02-26T08:44:52;100331.81;;;6.42;100.00
16525;BME280;8375;33.594;-117.718;2023-02-26T08:47:21;100336.00;;;6.28;100.00
16525;BME280;8375;33.594;-117.718;2023-02-26T08:49:49;100339.56;;;6.26;100.00
16525;BME280;8375;33.594;-117.718;2023-02-26T08:52:18;100340.47;;;6.25;100.00
16525;BME280;8375;33.594;-117.718;2023-02-26T08:54:47;100341.84;;;6.16;100.00
16525;BME280;8375;33.594;-117.718;2023-02-26T08:57:17;100340.00;;;6.18;100.00
16525;BME280;8375;33.594;-117.718;2023-02-26T08:59:46;100335.84;;;6.15;100.00
16525;BME280;8375;33.594;-117.718;2023-02-26T09:02:15;100335.59;;;6.20;100.00
16525;BME280;8375;33.594;-117.718;2023-02-26T09:04:44;100322.22;;;6.13;100.00
16525;BME280;8375;33.594;-117.718;2023-02-26T09:07:12;100326.66;;;6.26;100.00
16525;BME280;8375;33.594;-117.718;2023-02-26T09:09:41;100321.63;;;6.24;100.00
16525;BME280;8375;33.594;-117.718;2023-02-26T09:12:10;100327.03;;;6.20;100.00
16525;BME280;8375;33.594;-117.718;2023-02-26T09:14:40;100326.81;;;6.39;100.00
16525;BME280;8375;33.594;-117.718;2023-02-26T09:17:09;100332.31;;;6.33;100.00
16525;BME280;8375;33.594;-117.718;2023-02-26T09:19:37;100332.19;;;6.50;100.00
16525;BME280;8375;33.594;-117.718;2023-02-26T09:22:06;100330.03;;;6.42;100.00
16525;BME280;8375;33.594;-117.718;2023-02-26T09:24:34;100330.84;;;6.28;100.00
16525;BME280;8375;33.594;-117.718;2023-02-26T09:27:03;100338.41;;;6.31;100.00
16525;BME280;8375;33.594;-117.718;2023-02-26T09:29:32;100340.88;;;6.33;100.00
16525;BME280;8375;33.594;-117.718;2023-02-26T09:32:02;100330.91;;;6.27;100.00
16525;BME280;8375;33.594;-117.718;2023-02-26T09:34:33;100330.56;;;6.03;100.00
16525;BME280;8375;33.594;-117.718;2023-02-26T09:37:02;100320.56;;;5.96;100.00
16525;BME280;8375;33.594;-117.718;2023-02-26T09:39:31;100315.84;;;6.05;100.00
16525;BME280;8375;33.594;-117.718;2023-02-26T09:42:05;100313.06;;;5.92;100.00
16525;BME280;8375;33.594;-117.718;2023-02-26T09:44:37;100302.44;;;5.66;100.00
16525;BME280;8375;33.594;-117.718;2023-02-26T09:47:14;100303.22;;;5.52;100.00
16525;BME280;8375;33.594;-117.718;2023-02-26T09:49:49;100318.84;;;5.49;100.00
16525;BME280;8375;33.594;-117.718;2023-02-26T09:52:24;100307.94;;;5.60;100.00
16525;BME280;8375;33.594;-117.718;2023-02-26T09:54:57;100314.59;;;5.48;100.00
16525;BME280;8375;33.594;-117.718;2023-02-26T09:57:29;100307.63;;;5.50;100.00
16525;BME280;8375;33.594;-117.718;2023-02-26T09:59:59;100311.34;;;5.60;100.00
16525;BME280;8375;33.594;-117.718;2023-02-26T10:02:37;100313.75;;;5.31;100.00
16525;BME280;8375;33.594;-117.718;2023-02-26T10:05:18;100329.44;;;5.26;100.00
16525;BME280;8375;33.594;-117.718;2023-02-26T10:07:55;100318.97;;;5.29;100.00
16525;BME280;8375;33.594;-117.718;2023-02-26T10:10:32;100332.47;;;5.17;100.00
16525;BME280;8375;33.594;-117.718;2023-02-26T10:13:02;100329.16;;;5.15;100.00
16525;BME280;8375;33.594;-117.718;2023-02-26T10:15:35;100334.16;;;5.18;100.00
16525;BME280;8375;33.594;-117.718;2023-02-26T10:18:10;100322.22;;;5.33;100.00
16525;BME280;8375;33.594;-117.718;2023-02-26T10:20:45;100326.38;;;5.36;100.00
16525;BME280;8375;33.594;-117.718;2023-02-26T10:23:22;100336.38;;;5.58;100.00
16525;BME280;8375;33.594;-117.718;2023-02-26T10:25:55;100333.84;;;5.40;100.00
16525;BME280;8375;33.594;-117.718;2023-02-26T10:28:47;100334.50;;;5.44;100.00
16525;BME280;8375;33.594;-117.718;2023-02-26T10:31:25;100328.28;;;5.48;100.00
16525;BME280;8375;33.594;-117.718;2023-02-26T10:34:09;100336.41;;;5.24;100.00
16525;BME280;8375;33.594;-117.718;2023-02-26T10:36:46;100323.00;;;5.18;100.00
16525;BME280;8375;33.594;-117.718;2023-02-26T10:39:25;100319.50;;;5.03;100.00
16525;BME280;8375;33.594;-117.718;2023-02-26T10:41:55;100317.69;;;5.05;100.00
16525;BME280;8375;33.594;-117.718;2023-02-26T10:44:30;100312.53;;;5.05;100.00
16525;BME280;8375;33.594;-117.718;2023-02-26T10:47:04;100311.41;;;4.93;100.00
16525;BME280;8375;33.594;-117.718;2023-02-26T10:49:53;100318.91;;;4.97;100.00
16525;BME280;8375;33.594;-117.718;2023-02-26T10:52:24;100329.03;;;5.01;100.00
16525;BME280;8375;33.594;-117.718;2023-02-26T10:55:11;100329.56;;;4.90;100.00
16525;BME280;8375;33.594;-117.718;2023-02-26T10:57:49;100329.22;;;4.80;100.00
16525;BME280;8375;33.594;-117.718;2023-02-26T11:00:20;100346.53;;;4.59;100.00
16525;BME280;8375;33.594;-117.718;2023-02-26T11:02:50;100342.91;;;4.63;100.00
16525;BME280;8375;33.594;-117.718;2023-02-26T11:05:23;100352.53;;;4.77;100.00
16525;BME280;8375;33.594;-117.718;2023-02-26T11:07:55;100343.75;;;4.81;100.00
16525;BME280;8375;33.594;-117.718;2023-02-26T11:10:25;100342.31;;;4.58;100.00
16525;BME280;8375;33.594;-117.718;2023-02-26T11:12:56;100342.00;;;4.46;100.00
16525;BME280;8375;33.594;-117.718;2023-02-26T11:15:26;100352.75;;;4.37;100.00
16525;BME280;8375;33.594;-117.718;2023-02-26T11:17:57;100357.97;;;4.35;100.00
16525;BME280;8375;33.594;-117.718;2023-02-26T11:20:35;100356.91;;;4.39;100.00
16525;BME280;8375;33.594;-117.718;2023-02-26T11:23:09;100363.78;;;4.39;100.00
16525;BME280;8375;33.594;-117.718;2023-02-26T11:25:38;100365.81;;;4.32;100.00
16525;BME280;8375;33.594;-117.718;2023-02-26T11:28:19;100367.25;;;4.38;100.00
16525;BME280;8375;33.594;-117.718;2023-02-26T11:30:48;100379.34;;;4.36;100.00
16525;BME280;8375;33.594;-117.718;2023-02-26T11:33:22;100390.47;;;4.36;100.00
16525;BME280;8375;33.594;-117.718;2023-02-26T11:35:55;100393.63;;;4.24;100.00
16525;BME280;8375;33.594;-117.718;2023-02-26T11:38:27;100399.13;;;4.16;100.00
16525;BME280;8375;33.594;-117.718;2023-02-26T11:40:56;100398.78;;;4.05;100.00
16525;BME280;8375;33.594;-117.718;2023-02-26T11:43:32;100409.06;;;4.05;100.00
16525;BME280;8375;33.594;-117.718;2023-02-26T11:46:02;100408.34;;;4.20;100.00
16525;BME280;8375;33.594;-117.718;2023-02-26T11:48:38;100413.66;;;4.35;100.00
16525;BME280;8375;33.594;-117.718;2023-02-26T11:51:13;100412.28;;;4.28;100.00
16525;BME280;8375;33.594;-117.718;2023-02-26T11:53:47;100419.34;;;4.24;100.00
16525;BME280;8375;33.594;-117.718;2023-02-26T11:56:22;100420.28;;;4.21;100.00
16525;BME280;8375;33.594;-117.718;2023-02-26T11:58:53;100421.56;;;4.13;100.00
16525;BME280;8375;33.594;-117.718;2023-02-26T12:01:26;100431.97;;;3.90;100.00
16525;BME280;8375;33.594;-117.718;2023-02-26T12:03:58;100424.91;;;3.95;100.00
16525;BME280;8375;33.594;-117.718;2023-02-26T12:06:29;100434.47;;;4.30;100.00
16525;BME280;8375;33.594;-117.718;2023-02-26T12:08:58;100435.13;;;4.34;100.00
16525;BME280;8375;33.594;-117.718;2023-02-26T12:12:03;100443.38;;;4.23;100.00
16525;BME280;8375;33.594;-117.718;2023-02-26T12:14:47;100450.75;;;4.11;100.00
16525;BME280;8375;33.594;-117.718;2023-02-26T12:17:28;100462.13;;;4.06;100.00
16525;BME280;8375;33.594;-117.718;2023-02-26T12:20:06;100466.81;;;3.77;100.00
16525;BME280;8375;33.594;-117.718;2023-02-26T12:22:50;100466.59;;;3.62;100.00
16525;BME280;8375;33.594;-117.718;2023-02-26T12:25:39;100469.41;;;3.56;100.00
16525;BME280;8375;33.594;-117.718;2023-02-26T12:31:30;100483.63;;;3.65;100.00
16525;BME280;8375;33.594;-117.718;2023-02-26T12:34:23;100481.72;;;3.69;100.00
16525;BME280;8375;33.594;-117.718;2023-02-26T12:37:06;100484.16;;;3.72;100.00
16525;BME280;8375;33.594;-117.718;2023-02-26T12:39:49;100490.41;;;3.66;100.00
16525;BME280;8375;33.594;-117.718;2023-02-26T12:42:29;100491.53;;;3.79;100.00
16525;BME280;8375;33.594;-117.718;2023-02-26T12:45:14;100491.09;;;3.70;100.00
16525;BME280;8375;33.594;-117.718;2023-02-26T12:47:54;100492.09;;;3.67;100.00
16525;BME280;8375;33.594;-117.718;2023-02-26T12:50:41;100504.47;;;3.57;100.00
16525;BME280;8375;33.594;-117.718;2023-02-26T12:53:48;100503.81;;;3.52;100.00
16525;BME280;8375;33.594;-117.718;2023-02-26T12:56:44;100516.16;;;3.23;100.00
16525;BME280;8375;33.594;-117.718;2023-02-26T12:59:38;100533.69;;;3.34;100.00
16525;BME280;8375;33.594;-117.718;2023-02-26T13:02:49;100547.53;;;3.71;100.00
16525;BME280;8375;33.594;-117.718;2023-02-26T13:05:35;100566.59;;;3.65;100.00